createdAt,value
2019-04-25T00:00:16.268Z,14.65
2019-04-25T00:02:51.248Z,15.25
2019-04-25T00:05:22.031Z,15.10
2019-04-25T00:08:01.530Z,15.08
2019-04-25T00:10:33.918Z,14.93
2019-04-25T00:13:08.940Z,14.93
2019-04-25T00:15:48.650Z,15.45
2019-04-25T00:18:18.622Z,14.90
2019-04-25T00:20:52.179Z,14.15
2019-04-25T00:23:25.378Z,15.25
2019-04-25T00:26:01.363Z,15.18
2019-04-25T00:28:32.782Z,15.25
2019-04-25T00:31:08.220Z,15.35
2019-04-25T00:33:41.966Z,15.80
2019-04-25T00:38:50.286Z,16.07
2019-04-25T00:41:34.072Z,15.30
2019-04-25T00:44:07.389Z,16.27
2019-04-25T00:46:52.505Z,15.03
2019-04-25T00:49:16.887Z,15.50
2019-04-25T00:51:47.131Z,15.58
2019-04-25T00:54:24.360Z,15.78
2019-04-25T00:56:55.546Z,16.42
2019-04-25T00:59:33.179Z,16.27
2019-04-25T01:02:07.780Z,16.48
2019-04-25T01:04:37.797Z,16.15
2019-04-25T01:07:09.246Z,14.80
2019-04-25T01:09:43.459Z,15.23
2019-04-25T01:12:16.178Z,17.00
2019-04-25T01:14:59.391Z,16.75
2019-04-25T01:17:34.422Z,16.25
2019-04-25T01:20:11.261Z,17.12
2019-04-25T01:25:20.580Z,17.10
2019-04-25T01:27:51.806Z,16.75
2019-04-25T01:30:24.571Z,16.65
2019-04-25T01:33:04.051Z,17.00
2019-04-25T01:35:36.918Z,17.52
2019-04-25T01:38:18.194Z,17.67
2019-04-25T01:40:57.594Z,18.20
2019-04-25T01:43:35.330Z,17.67
2019-04-25T01:46:14.631Z,17.67
2019-04-25T01:48:44.764Z,17.25
2019-04-25T01:51:17.950Z,17.23
2019-04-25T01:53:49.405Z,18.75
2019-04-25T01:56:23.004Z,18.87
2019-04-25T01:58:55.976Z,17.98
2019-04-25T02:01:31.777Z,16.62
2019-04-25T02:04:03.558Z,18.80
2019-04-25T02:06:37.367Z,19.32
2019-04-25T02:09:10.074Z,17.87
2019-04-25T02:11:58.878Z,17.60
2019-04-25T02:14:39.141Z,18.82
2019-04-25T02:17:16.587Z,18.02
2019-04-25T02:19:51.961Z,18.92
2019-04-25T02:22:24.208Z,18.05
2019-04-25T02:27:49.578Z,17.48
2019-04-25T02:30:26.577Z,19.20
2019-04-25T02:33:00.932Z,17.92
2019-04-25T02:35:34.736Z,19.35
2019-04-25T02:38:08.796Z,17.15
2019-04-25T02:40:46.094Z,21.15
2019-04-25T02:43:16.234Z,23.70
2019-04-25T02:45:50.486Z,24.72
2019-04-25T02:48:24.927Z,25.43
2019-04-25T02:51:04.280Z,26.35
2019-04-25T02:53:38.120Z,26.70
2019-04-25T02:56:29.420Z,23.62
2019-04-25T02:58:45.128Z,24.47
2019-04-25T03:01:22.331Z,23.27
2019-04-25T03:03:54.351Z,22.85
2019-04-25T03:06:30.875Z,22.62
2019-04-25T03:09:09.322Z,20.75
2019-04-25T03:11:47.726Z,21.93
2019-04-25T03:14:20.589Z,21.37
2019-04-25T03:16:54.422Z,23.50
2019-04-25T03:19:40.395Z,24.35
2019-04-25T03:22:18.845Z,22.62
2019-04-25T03:24:54.751Z,21.55
2019-04-25T03:27:29.977Z,20.85
2019-04-25T03:30:01.786Z,21.00
2019-04-25T03:32:39.715Z,20.27
2019-04-25T03:35:10.167Z,21.15
2019-04-25T03:37:45.972Z,21.20
2019-04-25T03:40:19.553Z,20.60
2019-04-25T03:42:54.282Z,21.62
2019-04-25T03:45:58.169Z,22.20
2019-04-25T03:48:25.083Z,21.00
2019-04-25T03:51:06.623Z,20.75
2019-04-25T03:53:45.856Z,20.80
2019-04-25T03:56:22.742Z,19.98
2019-04-25T03:58:55.969Z,20.95
2019-04-25T04:01:27.661Z,22.20
2019-04-25T04:04:23.733Z,22.67
2019-04-25T04:07:00.763Z,22.30
2019-04-25T04:09:39.300Z,23.75
2019-04-25T04:12:14.488Z,24.52
2019-04-25T04:14:48.434Z,25.45
2019-04-25T04:17:26.467Z,26.45
2019-04-25T04:20:01.010Z,24.27
2019-04-25T04:22:41.442Z,24.65
2019-04-25T04:25:21.116Z,24.77
2019-04-25T04:27:51.716Z,27.67
2019-04-25T04:30:22.048Z,29.32
2019-04-25T04:33:22.168Z,31.12
2019-04-25T04:35:44.170Z,35.00
2019-04-25T04:38:16.359Z,37.88
2019-04-25T04:40:46.427Z,34.53
2019-04-25T04:43:16.606Z,30.02
2019-04-25T04:45:46.804Z,23.62
2019-04-25T04:48:16.783Z,22.45
2019-04-25T04:50:46.753Z,19.15
2019-04-25T04:53:17.226Z,20.05
2019-04-25T04:55:47.719Z,19.37
2019-04-25T04:58:17.943Z,18.92
2019-04-25T05:00:49.349Z,18.32
2019-04-25T05:03:27.897Z,17.95
2019-04-25T05:06:11.758Z,19.30
2019-04-25T05:08:43.578Z,19.45
2019-04-25T05:11:15.443Z,18.00
2019-04-25T05:13:45.496Z,18.52
2019-04-25T05:16:16.279Z,16.70
2019-04-25T05:18:46.589Z,16.62
2019-04-25T05:21:17.148Z,16.42
2019-04-25T05:23:47.486Z,18.35
2019-04-25T05:26:17.486Z,17.25
2019-04-25T05:28:47.651Z,17.55
2019-04-25T05:31:19.600Z,17.50
2019-04-25T05:33:49.701Z,16.82
2019-04-25T05:36:20.058Z,17.20
2019-04-25T05:38:51.314Z,17.37
2019-04-25T05:41:24.406Z,16.35
2019-04-25T05:43:54.902Z,16.62
2019-04-25T05:46:26.055Z,16.60
2019-04-25T05:48:56.919Z,16.10
2019-04-25T05:51:27.050Z,16.80
2019-04-25T05:53:57.222Z,16.70
2019-04-25T05:56:28.305Z,18.92
2019-04-25T05:58:58.684Z,16.80
2019-04-25T06:01:30.144Z,17.55
2019-04-25T06:04:00.467Z,16.90
2019-04-25T06:06:30.785Z,16.20
2019-04-25T06:09:17.725Z,17.70
2019-04-25T06:12:05.967Z,16.45
2019-04-25T06:14:36.255Z,18.07
2019-04-25T06:17:08.921Z,16.87
2019-04-25T06:19:40.772Z,16.50
2019-04-25T06:22:15.466Z,15.53
2019-04-25T06:24:47.113Z,16.50
2019-04-25T06:27:18.675Z,16.57
2019-04-25T06:29:58.210Z,16.90
2019-04-25T06:32:24.269Z,16.97
2019-04-25T06:34:54.699Z,15.23
2019-04-25T06:37:25.876Z,18.62
2019-04-25T06:39:57.458Z,15.38
2019-04-25T06:42:27.473Z,14.80
2019-04-25T06:45:08.191Z,14.50
2019-04-25T06:47:55.141Z,16.23
2019-04-25T06:50:26.221Z,14.23
2019-04-25T06:52:56.798Z,14.65
2019-04-25T06:55:27.311Z,14.28
2019-04-25T06:58:09.080Z,13.88
2019-04-25T07:00:34.165Z,14.40
2019-04-25T07:03:01.840Z,14.15
2019-04-25T07:05:35.758Z,13.30
2019-04-25T07:08:03.652Z,13.80
2019-04-25T07:10:34.855Z,13.32
2019-04-25T07:13:05.166Z,12.53
2019-04-25T07:15:35.385Z,13.80
2019-04-25T07:18:05.591Z,13.48
2019-04-25T07:20:35.646Z,15.58
2019-04-25T07:23:05.736Z,13.00
2019-04-25T07:25:37.550Z,11.85
2019-04-25T07:28:24.076Z,12.25
2019-04-25T07:30:54.779Z,12.53
2019-04-25T07:33:41.424Z,15.60
2019-04-25T07:36:11.542Z,11.97
2019-04-25T07:38:41.605Z,11.55
2019-04-25T07:41:14.724Z,12.00
2019-04-25T07:43:44.918Z,12.50
2019-04-25T07:46:15.299Z,11.45
2019-04-25T07:48:45.412Z,11.48
2019-04-25T07:51:16.555Z,10.98
2019-04-25T07:53:46.738Z,11.12
2019-04-25T07:56:16.697Z,10.88
2019-04-25T07:58:52.199Z,11.30
2019-04-25T08:01:18.967Z,10.45
2019-04-25T08:03:48.870Z,12.05
2019-04-25T08:06:18.899Z,11.40
2019-04-25T08:08:49.385Z,11.68
2019-04-25T08:11:19.921Z,11.48
2019-04-25T08:13:54.547Z,10.58
2019-04-25T08:16:26.143Z,12.35
2019-04-25T08:18:57.222Z,11.68
2019-04-25T08:21:27.274Z,10.78
2019-04-25T08:23:58.499Z,10.38
2019-04-25T08:26:29.481Z,11.18
2019-04-25T08:29:00.215Z,9.80
2019-04-25T08:31:31.203Z,10.13
2019-04-25T08:34:03.590Z,10.80
2019-04-25T08:36:37.090Z,10.05
2019-04-25T08:41:37.335Z,10.60
2019-04-25T08:44:08.487Z,10.48
2019-04-25T08:46:39.458Z,9.58
2019-04-25T08:49:23.966Z,9.60
2019-04-25T08:51:55.964Z,7.92
2019-04-25T08:54:42.232Z,9.20
2019-04-25T08:57:13.914Z,9.20
2019-04-25T08:59:55.601Z,11.80
2019-04-25T09:02:27.419Z,14.38
2019-04-25T09:04:58.915Z,11.30
2019-04-25T09:07:28.993Z,7.80
2019-04-25T09:09:58.909Z,8.25
2019-04-25T09:12:29.260Z,9.13
2019-04-25T09:14:59.127Z,7.95
2019-04-25T09:17:29.017Z,8.40
2019-04-25T09:19:59.010Z,8.38
2019-04-25T09:22:29.038Z,8.60
2019-04-25T09:24:58.958Z,9.23
2019-04-25T09:27:30.087Z,8.58
2019-04-25T09:29:59.932Z,9.78
2019-04-25T09:32:29.843Z,8.88
2019-04-25T09:34:59.746Z,7.67
2019-04-25T09:37:29.748Z,8.08
2019-04-25T09:40:04.329Z,8.18
2019-04-25T09:42:35.577Z,7.35
2019-04-25T09:45:26.271Z,10.32
2019-04-25T09:47:57.615Z,8.70
2019-04-25T09:50:29.108Z,8.58
2019-04-25T09:52:59.082Z,7.97
2019-04-25T09:55:39.751Z,8.20
2019-04-25T09:58:11.608Z,8.35
2019-04-25T10:00:49.053Z,8.45
2019-04-25T10:03:18.964Z,8.08
2019-04-25T10:05:49.042Z,8.75
2019-04-25T10:08:19.003Z,7.78
2019-04-25T10:10:49.018Z,7.72
2019-04-25T10:13:18.961Z,7.35
2019-04-25T10:16:03.565Z,7.50
2019-04-25T10:18:34.128Z,8.78
2019-04-25T10:21:06.886Z,8.25
2019-04-25T10:23:38.173Z,8.25
2019-04-25T10:26:11.346Z,7.80
2019-04-25T10:28:43.713Z,7.60
2019-04-25T10:31:13.865Z,7.62
2019-04-25T10:33:46.662Z,8.48
2019-04-25T10:36:16.049Z,7.87
2019-04-25T10:39:01.393Z,8.18
2019-04-25T10:41:17.974Z,7.87
2019-04-25T10:43:48.366Z,7.97
2019-04-25T10:46:20.002Z,7.50
2019-04-25T10:48:49.919Z,7.97
2019-04-25T10:51:19.941Z,7.72
2019-04-25T10:53:49.955Z,7.55
2019-04-25T10:56:20.015Z,7.03
2019-04-25T10:58:49.961Z,6.97
2019-04-25T11:01:19.808Z,8.78
2019-04-25T11:03:55.618Z,6.95
2019-04-25T11:06:27.287Z,8.03
2019-04-25T11:08:57.462Z,7.58
2019-04-25T11:11:27.597Z,7.20
2019-04-25T11:13:58.472Z,7.60
2019-04-25T11:16:28.424Z,6.78
2019-04-25T11:18:58.447Z,7.25
2019-04-25T11:21:28.492Z,7.08
2019-04-25T11:23:58.413Z,6.90
2019-04-25T11:26:28.499Z,7.75
2019-04-25T11:28:58.653Z,8.13
2019-04-25T11:31:30.200Z,7.67
2019-04-25T11:34:00.244Z,8.08
2019-04-25T11:36:30.074Z,7.33
2019-04-25T11:39:01.797Z,7.03
2019-04-25T11:41:34.155Z,7.17
2019-04-25T11:44:06.533Z,7.70
2019-04-25T11:46:39.217Z,7.42
2019-04-25T11:49:08.556Z,7.45
2019-04-25T11:51:39.645Z,7.22
2019-04-25T11:54:09.773Z,7.42
2019-04-25T11:56:39.749Z,6.97
2019-04-25T11:59:09.894Z,7.70
2019-04-25T12:01:39.983Z,7.83
2019-04-25T12:04:10.155Z,7.20
2019-04-25T12:06:40.015Z,7.20
2019-04-25T12:09:10.047Z,7.22
2019-04-25T12:11:40.430Z,7.87
2019-04-25T12:14:10.354Z,8.30
2019-04-25T12:16:40.282Z,7.42
2019-04-25T12:19:10.250Z,8.33
2019-04-25T12:21:40.269Z,7.35
2019-04-25T12:24:10.398Z,7.58
2019-04-25T12:26:40.358Z,9.20
2019-04-25T12:29:10.359Z,7.75
2019-04-25T12:31:40.382Z,6.75
2019-04-25T12:34:10.744Z,8.25
2019-04-25T12:36:40.660Z,7.57
2019-04-25T12:39:10.642Z,8.98
2019-04-25T12:41:40.908Z,9.58
2019-04-25T12:44:22.869Z,8.13
2019-04-25T12:46:55.592Z,7.05
2019-04-25T12:49:25.650Z,7.12
2019-04-25T12:51:55.585Z,8.13
2019-04-25T12:54:25.487Z,7.22
2019-04-25T12:56:55.325Z,7.28
2019-04-25T12:59:25.303Z,8.75
2019-04-25T13:01:55.938Z,6.90
2019-04-25T13:04:25.865Z,8.00
2019-04-25T13:06:55.974Z,6.92
2019-04-25T13:09:25.884Z,8.00
2019-04-25T13:11:55.771Z,8.10
2019-04-25T13:14:25.789Z,8.13
2019-04-25T13:16:55.758Z,6.60
2019-04-25T13:19:26.531Z,6.58
2019-04-25T13:21:57.093Z,7.55
2019-04-25T13:24:27.840Z,7.40
2019-04-25T13:27:03.598Z,7.42
2019-04-25T13:29:47.591Z,7.92
2019-04-25T13:32:24.891Z,7.37
2019-04-25T13:34:57.151Z,8.30
2019-04-25T13:37:27.053Z,6.95
2019-04-25T13:39:58.117Z,6.35
2019-04-25T13:42:28.326Z,8.03
2019-04-25T13:44:58.353Z,7.17
2019-04-25T13:47:29.430Z,7.25
2019-04-25T13:49:59.921Z,7.05
2019-04-25T13:52:29.797Z,7.08
2019-04-25T13:54:59.708Z,6.90
2019-04-25T13:57:29.946Z,6.62
2019-04-25T14:00:00.055Z,7.28
2019-04-25T14:02:30.066Z,8.23
2019-04-25T14:04:59.985Z,6.95
2019-04-25T14:07:29.979Z,7.00
2019-04-25T14:09:59.805Z,8.15
2019-04-25T14:12:30.344Z,12.55
2019-04-25T14:15:00.377Z,7.08
2019-04-25T14:17:48.898Z,6.58
2019-04-25T14:20:26.518Z,7.22
2019-04-25T14:23:03.541Z,6.97
2019-04-25T14:25:35.530Z,7.12
2019-04-25T14:28:09.222Z,6.47
2019-04-25T14:30:43.439Z,7.17
2019-04-25T14:33:15.836Z,7.12
2019-04-25T14:35:45.925Z,7.33
2019-04-25T14:38:19.144Z,7.60
2019-04-25T14:40:50.831Z,6.25
2019-04-25T14:43:34.675Z,8.05
2019-04-25T14:46:05.340Z,13.65
2019-04-25T14:48:43.959Z,7.45
2019-04-25T14:51:24.222Z,7.35
2019-04-25T14:53:55.849Z,6.70
2019-04-25T14:56:32.419Z,8.25
2019-04-25T14:59:05.920Z,8.23
2019-04-25T15:01:44.504Z,7.08
2019-04-25T15:04:07.817Z,7.15
2019-04-25T15:06:37.759Z,7.08
2019-04-25T15:09:16.971Z,7.45
2019-04-25T15:11:47.508Z,6.90
2019-04-25T15:14:22.564Z,7.90
2019-04-25T15:16:53.917Z,8.30
2019-04-25T15:19:24.483Z,8.60
2019-04-25T15:21:58.554Z,10.15
2019-04-25T15:24:32.380Z,8.95
2019-04-25T15:27:02.742Z,7.85
2019-04-25T15:29:40.374Z,7.65
2019-04-25T15:32:14.187Z,12.37
2019-04-25T15:34:48.790Z,7.62
2019-04-25T15:37:26.746Z,7.72
2019-04-25T15:40:01.300Z,11.12
2019-04-25T15:42:52.100Z,8.40
2019-04-25T15:45:38.790Z,7.05
2019-04-25T15:48:13.936Z,8.85
2019-04-25T15:50:46.936Z,7.75
2019-04-25T15:53:18.426Z,8.35
2019-04-25T15:55:55.216Z,8.33
2019-04-25T15:58:35.261Z,14.03
2019-04-25T16:01:13.567Z,10.00
2019-04-25T16:03:52.433Z,9.15
2019-04-25T16:06:22.049Z,8.63
2019-04-25T16:08:58.145Z,8.65
2019-04-25T16:11:49.390Z,13.25
2019-04-25T16:14:33.403Z,9.90
2019-04-25T16:17:12.926Z,9.03
2019-04-25T16:19:54.544Z,9.48
2019-04-25T16:22:24.569Z,9.40
2019-04-25T16:24:57.238Z,8.70
2019-04-25T16:30:16.945Z,9.08
2019-04-25T16:32:44.207Z,9.10
2019-04-25T16:35:17.934Z,8.58
2019-04-25T16:37:57.142Z,9.93
2019-04-25T16:40:36.263Z,9.13
2019-04-25T16:43:16.129Z,9.43
2019-04-25T16:45:47.411Z,8.63
2019-04-25T16:51:02.034Z,10.00
2019-04-25T16:53:32.640Z,10.58
2019-04-25T16:56:08.379Z,8.80
2019-04-25T16:58:44.456Z,8.58
2019-04-25T17:01:15.380Z,10.60
2019-04-25T17:03:45.529Z,7.47
2019-04-25T17:06:18.581Z,9.03
2019-04-25T17:08:48.845Z,8.80
2019-04-25T17:11:19.280Z,8.73
2019-04-25T17:14:00.300Z,8.83
2019-04-25T17:19:12.781Z,18.62
2019-04-25T17:24:17.468Z,27.17
2019-04-25T17:26:49.863Z,16.52
2019-04-25T17:29:21.015Z,10.35
2019-04-25T17:31:55.915Z,13.20
2019-04-25T17:34:27.829Z,17.27
2019-04-25T17:37:00.881Z,15.50
2019-04-25T17:39:38.397Z,17.35
2019-04-25T17:42:13.216Z,18.40
2019-04-25T17:44:46.066Z,24.95
2019-04-25T17:47:17.533Z,31.35
2019-04-25T17:49:48.015Z,24.45
2019-04-25T17:52:18.123Z,27.00
2019-04-25T17:54:48.460Z,24.32
2019-04-25T17:57:21.217Z,22.65
2019-04-25T17:59:51.286Z,22.37
2019-04-25T18:02:21.989Z,21.02
2019-04-25T18:04:55.769Z,22.80
2019-04-25T18:07:29.183Z,18.75
2019-04-25T18:09:59.532Z,18.52
2019-04-25T18:15:15.359Z,19.45
2019-04-25T18:17:46.608Z,20.88
2019-04-25T18:20:49.098Z,20.07
2019-04-25T18:23:03.903Z,39.13
2019-04-25T18:26:11.399Z,29.52
2019-04-25T18:28:47.682Z,25.30
2019-04-25T18:31:18.000Z,31.02
2019-04-25T18:34:14.491Z,32.78
2019-04-25T18:36:55.564Z,32.17
2019-04-25T18:39:46.228Z,39.58
2019-04-25T18:42:36.535Z,40.40
2019-04-25T18:45:12.549Z,43.45
2019-04-25T18:48:09.564Z,42.55
2019-04-25T18:50:49.508Z,40.78
2019-04-25T18:53:31.808Z,43.27
2019-04-25T18:56:31.456Z,51.42
2019-04-25T18:59:26.164Z,57.98
2019-04-25T19:02:18.567Z,46.37
2019-04-25T19:07:50.075Z,42.73
2019-04-25T19:13:13.302Z,41.37
2019-04-25T19:15:49.771Z,30.92
2019-04-25T19:24:01.155Z,36.50
2019-04-25T19:26:35.158Z,33.33
2019-04-25T19:31:36.111Z,38.00
2019-04-25T19:34:06.102Z,38.78
2019-04-25T19:36:36.172Z,36.85
2019-04-25T19:39:07.337Z,37.75
2019-04-25T19:41:42.874Z,36.40
2019-04-25T19:44:14.547Z,33.13
2019-04-25T19:46:47.076Z,36.73
2019-04-25T19:49:27.596Z,34.85
2019-04-25T19:52:00.494Z,37.30
2019-04-25T19:54:33.857Z,39.78
2019-04-25T19:57:07.050Z,35.90
2019-04-25T19:59:50.697Z,34.45
2019-04-25T20:02:22.685Z,33.88
2019-04-25T20:05:07.823Z,33.33
2019-04-25T20:07:42.539Z,37.73
2019-04-25T20:10:29.642Z,35.08
2019-04-25T20:13:07.229Z,29.77
2019-04-25T20:15:37.601Z,32.40
2019-04-25T20:18:08.963Z,30.40
2019-04-25T20:20:41.991Z,29.77
2019-04-25T20:23:19.650Z,31.15
2019-04-25T20:25:51.458Z,28.60
2019-04-25T20:28:23.841Z,26.37
2019-04-25T20:31:00.330Z,27.07
2019-04-25T20:33:31.668Z,23.95
2019-04-25T20:36:02.138Z,27.50
2019-04-25T20:38:33.912Z,25.45
2019-04-25T20:41:07.428Z,27.17
2019-04-25T20:43:37.827Z,25.68
2019-04-25T20:46:08.262Z,27.07
2019-04-25T20:48:48.215Z,25.68
2019-04-25T20:51:27.165Z,27.07
2019-04-25T20:54:01.754Z,26.82
2019-04-25T20:56:38.772Z,26.10
2019-04-25T20:59:30.053Z,27.30
2019-04-25T21:02:05.899Z,25.08
2019-04-25T21:04:43.547Z,25.02
2019-04-25T21:07:18.377Z,27.00
2019-04-25T21:09:51.913Z,26.52
2019-04-25T21:12:28.889Z,25.57
2019-04-25T21:15:07.814Z,27.13
2019-04-25T21:17:45.386Z,26.68
2019-04-25T21:25:55.260Z,26.97
2019-04-25T21:28:27.692Z,25.72
2019-04-25T21:31:08.095Z,24.72
2019-04-25T21:34:25.390Z,25.37
2019-04-25T21:36:30.763Z,24.75
2019-04-25T21:39:13.171Z,26.02
2019-04-25T21:42:22.819Z,24.67
2019-04-25T21:45:00.492Z,23.22
2019-04-25T21:47:32.328Z,23.50
2019-04-25T21:50:21.820Z,21.75
2019-04-25T21:56:02.692Z,22.52
2019-04-25T21:58:50.905Z,22.10
2019-04-25T22:01:32.195Z,23.22
2019-04-25T22:04:05.309Z,25.15
2019-04-25T22:06:44.684Z,23.62
2019-04-25T22:09:25.136Z,22.27
2019-04-25T22:12:15.758Z,21.55
2019-04-25T22:15:10.609Z,21.35
2019-04-25T22:17:54.737Z,21.57
2019-04-25T22:20:48.455Z,22.50
2019-04-25T22:23:40.269Z,21.15
2019-04-25T22:26:26.088Z,21.02
2019-04-25T22:29:07.471Z,21.97
2019-04-25T22:32:04.077Z,20.02
2019-04-25T22:35:00.275Z,21.85
2019-04-25T22:37:50.576Z,20.95
2019-04-25T22:40:36.829Z,22.10
2019-04-25T22:43:13.730Z,22.85
2019-04-25T22:46:26.397Z,20.30
2019-04-25T22:51:43.146Z,20.97
2019-04-25T22:54:22.729Z,20.75
2019-04-25T22:57:01.798Z,21.00
2019-04-25T23:00:03.269Z,20.37
2019-04-25T23:02:37.002Z,20.08
2019-04-25T23:05:30.867Z,21.50
2019-04-25T23:11:18.206Z,21.17
2019-04-25T23:13:55.854Z,21.70
2019-04-25T23:16:27.480Z,22.07
2019-04-25T23:19:02.808Z,20.17
2019-04-25T23:25:12.076Z,20.70
2019-04-25T23:28:01.254Z,20.82
2019-04-25T23:30:52.634Z,22.30
2019-04-25T23:33:45.990Z,22.50
2019-04-25T23:36:24.813Z,20.72
2019-04-25T23:39:06.488Z,21.73
2019-04-25T23:41:43.204Z,22.02
2019-04-25T23:44:14.074Z,22.30
2019-04-25T23:49:33.314Z,20.90
2019-04-25T23:55:42.392Z,19.62
2019-04-25T23:58:07.095Z,24.75
